createdAt,value
2023-09-12T00:00:45.104Z,77.00
2023-09-12T00:03:12.712Z,77.10
2023-09-12T00:05:39.567Z,77.10
2023-09-12T00:08:06.641Z,76.90
2023-09-12T00:10:33.521Z,76.70
2023-09-12T00:13:01.681Z,76.80
2023-09-12T00:15:28.521Z,77.00
2023-09-12T00:17:55.377Z,77.10
2023-09-12T00:20:22.287Z,77.00
2023-09-12T00:22:49.067Z,77.00
2023-09-12T00:25:15.968Z,76.90
2023-09-12T00:27:42.730Z,76.80
2023-09-12T00:30:12.239Z,76.70
2023-09-12T00:32:39.106Z,76.80
2023-09-12T00:35:07.003Z,76.80
2023-09-12T00:37:33.832Z,77.10
2023-09-12T00:40:00.609Z,77.20
2023-09-12T00:42:27.608Z,77.00
2023-09-12T00:44:54.423Z,76.60
2023-09-12T00:47:23.961Z,76.50
2023-09-12T00:49:56.328Z,76.40
2023-09-12T00:52:25.669Z,76.30
2023-09-12T00:54:52.816Z,76.30
2023-09-12T00:57:20.458Z,76.30
2023-09-12T00:59:48.201Z,76.30
2023-09-12T01:02:15.146Z,76.20
2023-09-12T01:04:43.591Z,76.30
2023-09-12T01:07:10.499Z,76.30
2023-09-12T01:09:37.400Z,76.30
2023-09-12T01:12:04.970Z,76.30
2023-09-12T01:14:31.878Z,76.10
2023-09-12T01:16:59.360Z,76.10
2023-09-12T01:19:26.259Z,76.10
2023-09-12T01:22:16.713Z,76.10
2023-09-12T01:25:25.185Z,76.10
2023-09-12T01:27:54.927Z,76.10
2023-09-12T01:30:23.429Z,76.00
2023-09-12T01:32:51.524Z,76.00
2023-09-12T01:35:18.427Z,76.70
2023-09-12T01:37:45.212Z,75.90
2023-09-12T01:40:12.193Z,76.00
2023-09-12T01:42:42.786Z,75.90
2023-09-12T01:45:15.017Z,76.10
2023-09-12T01:47:50.630Z,76.10
2023-09-12T01:50:18.366Z,75.90
2023-09-12T01:52:45.671Z,75.90
2023-09-12T01:55:13.034Z,75.80
2023-09-12T01:57:41.256Z,76.00
2023-09-12T02:00:09.216Z,76.00
2023-09-12T02:02:37.375Z,75.90
2023-09-12T02:05:10.673Z,75.80
2023-09-12T02:07:39.816Z,75.80
2023-09-12T02:10:07.763Z,75.90
2023-09-12T02:12:34.724Z,76.10
2023-09-12T02:15:01.586Z,76.20
2023-09-12T02:17:28.520Z,76.20
2023-09-12T02:19:56.740Z,76.00
2023-09-12T02:22:23.570Z,75.90
2023-09-12T02:24:50.773Z,75.50
2023-09-12T02:27:17.760Z,75.50
2023-09-12T02:29:44.700Z,75.50
2023-09-12T02:32:11.571Z,75.70
2023-09-12T02:34:38.450Z,76.30
2023-09-12T02:37:06.576Z,76.20
2023-09-12T02:39:33.352Z,76.00
2023-09-12T02:42:00.185Z,76.10
2023-09-12T02:44:26.958Z,76.20
2023-09-12T02:46:53.772Z,76.20
2023-09-12T02:49:20.592Z,76.20
2023-09-12T02:51:47.415Z,76.10
2023-09-12T02:54:15.633Z,76.20
2023-09-12T02:56:42.404Z,76.20
2023-09-12T02:59:09.165Z,76.00
2023-09-12T03:01:35.982Z,76.10
2023-09-12T03:04:02.966Z,76.60
2023-09-12T03:06:30.078Z,76.50
2023-09-12T03:08:56.819Z,76.20
2023-09-12T03:11:27.062Z,76.20
2023-09-12T03:13:53.828Z,76.20
2023-09-12T03:16:20.617Z,76.40
2023-09-12T03:18:47.622Z,76.40
2023-09-12T03:21:14.532Z,76.30
2023-09-12T03:23:41.376Z,76.50
2023-09-12T03:26:08.156Z,76.80
2023-09-12T03:28:36.257Z,76.70
2023-09-12T03:31:09.468Z,76.60
2023-09-12T03:33:36.594Z,76.40
2023-09-12T03:36:03.844Z,76.60
2023-09-12T03:38:30.643Z,76.70
2023-09-12T03:40:57.434Z,76.60
2023-09-12T03:43:24.197Z,76.30
2023-09-12T03:45:52.370Z,75.90
2023-09-12T03:48:19.259Z,76.10
2023-09-12T03:50:46.164Z,76.00
2023-09-12T03:53:14.452Z,76.10
2023-09-12T03:55:41.251Z,76.20
2023-09-12T03:58:08.122Z,76.00
2023-09-12T04:00:35.062Z,76.00
2023-09-12T04:03:03.686Z,76.20
2023-09-12T04:05:30.734Z,76.30
2023-09-12T04:07:57.475Z,76.30
2023-09-12T04:10:24.385Z,76.20
2023-09-12T04:12:51.182Z,76.30
2023-09-12T04:15:18.273Z,76.20
2023-09-12T04:17:45.219Z,76.00
2023-09-12T04:20:13.632Z,76.20
2023-09-12T04:22:40.559Z,76.50
2023-09-12T04:25:07.668Z,76.70
2023-09-12T04:27:34.471Z,76.60
2023-09-12T04:30:01.339Z,76.40
2023-09-12T04:32:28.261Z,76.30
2023-09-12T04:34:55.059Z,76.20
2023-09-12T04:37:23.179Z,76.50
2023-09-12T04:39:49.954Z,76.60
2023-09-12T04:42:16.794Z,76.70
2023-09-12T04:44:43.668Z,76.40
2023-09-12T04:47:10.555Z,76.40
2023-09-12T04:49:37.368Z,76.40
2023-09-12T04:52:04.969Z,76.40
2023-09-12T04:54:33.116Z,76.30
2023-09-12T04:56:59.922Z,76.50
2023-09-12T04:59:26.713Z,76.40
2023-09-12T05:01:53.743Z,76.40
2023-09-12T05:04:20.569Z,76.50
2023-09-12T05:06:47.428Z,76.60
2023-09-12T05:09:14.385Z,76.60
2023-09-12T05:11:42.508Z,76.60
2023-09-12T05:14:09.296Z,76.50
2023-09-12T05:16:36.066Z,76.60
2023-09-12T05:19:02.891Z,76.50
2023-09-12T05:21:29.732Z,76.60
2023-09-12T05:23:56.699Z,76.60
2023-09-12T05:26:23.539Z,76.60
2023-09-12T05:28:51.645Z,76.70
2023-09-12T05:31:18.562Z,76.70
2023-09-12T05:33:45.436Z,76.90
2023-09-12T05:36:12.227Z,77.10
2023-09-12T05:38:39.021Z,77.00
2023-09-12T05:41:05.806Z,77.30
2023-09-12T05:43:32.588Z,77.40
2023-09-12T05:46:00.829Z,77.60
2023-09-12T05:48:27.674Z,77.90
2023-09-12T05:50:54.481Z,78.10
2023-09-12T05:53:21.284Z,78.20
2023-09-12T05:55:48.128Z,78.60
2023-09-12T05:58:14.906Z,78.70
2023-09-12T06:00:41.714Z,79.00
2023-09-12T06:03:09.975Z,79.30
2023-09-12T06:05:36.948Z,79.90
2023-09-12T06:08:04.387Z,80.40
2023-09-12T06:10:31.173Z,80.60
2023-09-12T06:12:58.040Z,80.90
2023-09-12T06:15:24.939Z,81.40
2023-09-12T06:17:52.028Z,81.80
2023-09-12T06:20:20.293Z,81.70
2023-09-12T06:22:47.076Z,82.30
2023-09-12T06:25:13.871Z,82.40
2023-09-12T06:27:40.816Z,82.80
2023-09-12T06:30:08.952Z,83.20
2023-09-12T06:32:35.811Z,83.40
2023-09-12T06:35:02.606Z,83.50
2023-09-12T06:37:30.703Z,83.80
2023-09-12T06:39:57.468Z,83.00
2023-09-12T06:42:24.314Z,81.90
2023-09-12T06:44:51.085Z,80.90
2023-09-12T06:47:17.842Z,80.10
2023-09-12T06:49:46.784Z,79.50
2023-09-12T06:52:15.339Z,79.00
2023-09-12T06:54:43.505Z,78.50
2023-09-12T06:57:10.313Z,78.40
2023-09-12T06:59:37.362Z,78.30
2023-09-12T07:02:04.518Z,78.10
2023-09-12T07:04:31.304Z,78.10
2023-09-12T07:06:58.086Z,77.80
2023-09-12T07:09:25.352Z,77.70
2023-09-12T07:11:53.544Z,77.70
2023-09-12T07:14:20.301Z,77.60
2023-09-12T07:16:47.078Z,77.70
2023-09-12T07:19:13.876Z,77.70
2023-09-12T07:21:40.676Z,77.80
2023-09-12T07:24:07.882Z,77.90
2023-09-12T07:26:34.630Z,77.90
2023-09-12T07:29:02.753Z,77.90
2023-09-12T07:31:29.696Z,78.00
2023-09-12T07:33:56.543Z,78.00
2023-09-12T07:36:23.605Z,78.10
2023-09-12T07:38:50.452Z,78.10
2023-09-12T07:41:17.322Z,78.20
2023-09-12T07:43:44.290Z,78.30
2023-09-12T07:46:12.661Z,78.30
2023-09-12T07:48:39.551Z,78.40
2023-09-12T07:51:13.481Z,78.50
2023-09-12T07:53:40.698Z,78.50
2023-09-12T07:56:09.450Z,78.50
2023-09-12T07:58:36.208Z,78.50
2023-09-12T08:01:06.164Z,78.60
2023-09-12T08:03:34.593Z,78.60
2023-09-12T08:06:01.552Z,78.60
2023-09-12T08:08:28.377Z,78.60
2023-09-12T08:10:55.339Z,78.60
2023-09-12T08:13:23.157Z,78.70
2023-09-12T08:15:49.932Z,78.80
2023-09-12T08:18:16.743Z,78.80
2023-09-12T08:20:44.934Z,78.90
2023-09-12T08:23:11.948Z,78.90
2023-09-12T08:25:40.000Z,79.10
2023-09-12T08:28:06.883Z,79.30
2023-09-12T08:30:33.909Z,79.40
2023-09-12T08:33:00.756Z,79.50
2023-09-12T08:35:27.578Z,79.60
2023-09-12T08:37:55.749Z,79.70
2023-09-12T08:40:22.537Z,79.80
2023-09-12T08:42:51.490Z,80.00
2023-09-12T08:45:19.389Z,80.10
2023-09-12T08:47:52.466Z,80.30
2023-09-12T08:50:21.623Z,80.50
2023-09-12T08:53:05.248Z,80.60
2023-09-12T08:55:36.886Z,80.70
2023-09-12T08:58:05.642Z,80.90
2023-09-12T09:00:32.952Z,81.00
2023-09-12T09:03:00.578Z,81.30
2023-09-12T09:05:28.667Z,81.50
2023-09-12T09:07:56.246Z,81.70
2023-09-12T09:10:34.679Z,81.90
2023-09-12T09:13:13.870Z,82.00
2023-09-12T09:15:40.808Z,82.40
2023-09-12T09:18:07.804Z,82.60
2023-09-12T09:20:35.611Z,82.80
2023-09-12T09:23:03.998Z,83.10
2023-09-12T09:25:30.788Z,83.50
2023-09-12T09:27:57.548Z,83.90
2023-09-12T09:30:41.722Z,84.20
2023-09-12T09:33:09.036Z,84.60
2023-09-12T09:35:36.302Z,84.90
2023-09-12T09:38:04.612Z,85.30
2023-09-12T09:40:32.707Z,85.60
2023-09-12T09:43:01.675Z,85.90
2023-09-12T09:45:28.715Z,86.50
2023-09-12T09:47:59.823Z,86.80
2023-09-12T09:50:26.914Z,87.20
2023-09-12T09:52:56.999Z,87.90
2023-09-12T09:55:24.255Z,88.20
2023-09-12T09:57:51.223Z,88.60
2023-09-12T10:00:18.193Z,89.20
2023-09-12T10:02:46.298Z,89.40
2023-09-12T10:05:15.377Z,89.90
2023-09-12T10:07:43.794Z,90.00
2023-09-12T10:10:11.571Z,90.70
2023-09-12T10:12:50.261Z,90.60
2023-09-12T10:15:19.816Z,90.90
2023-09-12T10:17:52.064Z,91.10
2023-09-12T10:20:24.465Z,91.30
2023-09-12T10:22:57.100Z,91.50
2023-09-12T10:25:25.251Z,91.80
2023-09-12T10:27:55.147Z,91.90
2023-09-12T10:30:23.494Z,92.10
2023-09-12T10:32:52.097Z,92.20
2023-09-12T10:35:20.628Z,92.40
2023-09-12T10:37:51.854Z,92.70
2023-09-12T10:42:53.732Z,93.10
2023-09-12T10:45:21.923Z,93.30
2023-09-12T10:47:48.994Z,93.40
2023-09-12T10:50:16.076Z,93.60
2023-09-12T10:52:44.260Z,93.60
2023-09-12T10:55:16.988Z,93.80
2023-09-12T10:58:01.851Z,93.90
2023-09-12T11:00:28.647Z,94.10
2023-09-12T11:02:55.466Z,94.20
2023-09-12T11:05:38.873Z,94.30
2023-09-12T11:08:07.066Z,94.20
2023-09-12T11:10:33.850Z,94.20
2023-09-12T11:13:00.911Z,94.30
2023-09-12T11:15:29.133Z,94.50
2023-09-12T11:18:03.984Z,94.60
2023-09-12T11:20:53.045Z,94.60
2023-09-12T11:23:21.509Z,94.70
2023-09-12T11:25:48.570Z,94.70
2023-09-12T11:28:15.543Z,94.80
2023-09-12T11:30:57.863Z,94.80
2023-09-12T11:33:25.840Z,94.90
2023-09-12T11:35:54.702Z,94.90
2023-09-12T11:38:29.681Z,95.00
2023-09-12T11:40:57.100Z,94.90
2023-09-12T11:43:25.593Z,95.00
2023-09-12T11:45:53.600Z,94.90
2023-09-12T11:48:21.122Z,94.90
2023-09-12T11:50:52.962Z,94.90
2023-09-12T11:53:21.970Z,94.90
2023-09-12T11:55:52.361Z,94.90
2023-09-12T11:58:19.685Z,95.10
2023-09-12T12:00:48.095Z,95.10
2023-09-12T12:03:15.746Z,95.20
2023-09-12T12:05:43.436Z,95.20
2023-09-12T12:08:30.224Z,95.30
2023-09-12T12:11:00.776Z,95.40
2023-09-12T12:13:27.873Z,95.50
2023-09-12T12:15:54.797Z,95.60
2023-09-12T12:18:21.820Z,95.60
2023-09-12T12:20:48.769Z,95.60
2023-09-12T12:23:15.591Z,95.60
2023-09-12T12:25:42.418Z,95.70
2023-09-12T12:28:10.582Z,95.70
2023-09-12T12:30:37.903Z,95.80
2023-09-12T12:33:41.064Z,95.90
2023-09-12T12:36:01.087Z,96.00
2023-09-12T12:38:28.075Z,96.10
2023-09-12T12:40:54.954Z,96.10
2023-09-12T12:43:23.137Z,96.20
2023-09-12T12:45:56.751Z,96.20
2023-09-12T12:48:34.149Z,96.30
2023-09-12T12:51:13.400Z,96.30
2023-09-12T12:56:15.705Z,96.40
2023-09-12T12:58:51.923Z,96.40
2023-09-12T13:01:19.343Z,96.40
2023-09-12T13:03:46.938Z,96.40
2023-09-12T13:06:14.500Z,96.40
2023-09-12T13:08:42.157Z,96.40
2023-09-12T13:11:09.470Z,96.30
2023-09-12T13:13:36.366Z,96.40
2023-09-12T13:16:05.272Z,96.40
2023-09-12T13:18:32.735Z,96.40
2023-09-12T13:20:59.578Z,96.40
2023-09-12T13:23:26.579Z,96.40
2023-09-12T13:25:53.609Z,96.30
2023-09-12T13:28:20.461Z,96.30
2023-09-12T13:30:47.920Z,96.20
2023-09-12T13:33:16.183Z,96.10
2023-09-12T13:35:43.200Z,96.00
2023-09-12T13:38:10.115Z,95.90
2023-09-12T13:40:38.079Z,95.80
2023-09-12T13:43:05.033Z,95.60
2023-09-12T13:45:31.946Z,95.50
2023-09-12T13:47:59.170Z,95.20
2023-09-12T13:50:27.829Z,95.10
2023-09-12T13:52:55.165Z,94.80
2023-09-12T13:55:36.121Z,94.70
2023-09-12T13:58:08.707Z,94.50
2023-09-12T14:00:37.026Z,94.50
2023-09-12T14:03:05.358Z,94.50
2023-09-12T14:05:34.006Z,94.50
2023-09-12T14:08:01.449Z,94.30
2023-09-12T14:10:36.112Z,94.10
2023-09-12T14:13:19.212Z,94.00
2023-09-12T14:15:48.275Z,93.90
2023-09-12T14:18:15.409Z,93.60
2023-09-12T14:20:45.503Z,93.40
2023-09-12T14:23:12.655Z,93.20
2023-09-12T14:25:39.675Z,93.20
2023-09-12T14:28:06.790Z,93.20
2023-09-12T14:30:33.665Z,93.00
2023-09-12T14:33:00.576Z,92.90
2023-09-12T14:35:27.370Z,92.90
2023-09-12T14:37:55.635Z,92.60
2023-09-12T14:40:22.697Z,92.60
2023-09-12T14:42:49.502Z,92.60
2023-09-12T14:45:17.223Z,92.60
2023-09-12T14:47:44.057Z,92.60
2023-09-12T14:50:10.890Z,93.10
2023-09-12T14:52:37.723Z,92.70
2023-09-12T14:55:07.108Z,92.60
2023-09-12T14:57:33.951Z,92.50
2023-09-12T15:00:00.777Z,92.60
2023-09-12T15:02:27.567Z,92.70
2023-09-12T15:04:54.370Z,92.70
2023-09-12T15:07:21.149Z,92.70
2023-09-12T15:09:47.956Z,92.60
2023-09-12T15:12:16.079Z,92.50
2023-09-12T15:14:42.850Z,92.50
2023-09-12T15:17:09.642Z,92.50
2023-09-12T15:19:36.409Z,92.50
2023-09-12T15:22:03.357Z,92.40
2023-09-12T15:24:30.235Z,92.40
2023-09-12T15:26:57.110Z,92.30
2023-09-12T15:29:25.496Z,92.30
2023-09-12T15:31:54.481Z,92.20
2023-09-12T15:34:21.289Z,92.20
2023-09-12T15:36:49.151Z,92.10
2023-09-12T15:39:16.140Z,92.10
2023-09-12T15:41:42.887Z,92.00
2023-09-12T15:44:15.756Z,91.90
2023-09-12T15:46:44.740Z,91.90
2023-09-12T15:49:11.895Z,91.80
2023-09-12T15:51:38.917Z,91.70
2023-09-12T15:54:05.976Z,91.60
2023-09-12T15:56:32.793Z,91.50
2023-09-12T15:58:59.548Z,91.40
2023-09-12T16:01:26.700Z,91.10
2023-09-12T16:03:55.136Z,91.10
2023-09-12T16:06:22.380Z,91.00
2023-09-12T16:08:49.365Z,91.00
2023-09-12T16:11:16.206Z,91.00
2023-09-12T16:13:43.186Z,91.00
2023-09-12T16:16:10.162Z,91.10
2023-09-12T16:18:37.060Z,91.00
2023-09-12T16:21:05.248Z,91.00
2023-09-12T16:23:32.119Z,91.00
2023-09-12T16:25:59.978Z,90.90
2023-09-12T16:28:27.714Z,90.50
2023-09-12T16:30:54.925Z,89.70
2023-09-12T16:33:21.811Z,88.80
2023-09-12T16:35:48.814Z,87.50
2023-09-12T16:38:16.939Z,87.10
2023-09-12T16:40:43.738Z,86.60
2023-09-12T16:43:10.483Z,86.70
2023-09-12T16:45:37.268Z,87.00
2023-09-12T16:48:04.555Z,87.20
2023-09-12T16:50:31.473Z,87.50
2023-09-12T16:52:58.281Z,88.60
2023-09-12T16:55:26.441Z,87.80
2023-09-12T16:57:53.326Z,87.30
2023-09-12T17:00:20.343Z,87.10
2023-09-12T17:02:47.242Z,87.20
2023-09-12T17:05:14.188Z,87.50
2023-09-12T17:07:41.011Z,87.60
2023-09-12T17:10:08.379Z,87.60
2023-09-12T17:12:36.614Z,87.80
2023-09-12T17:15:03.807Z,87.60
2023-09-12T17:17:30.610Z,87.50
2023-09-12T17:19:57.484Z,87.60
2023-09-12T17:22:24.288Z,87.30
2023-09-12T17:24:51.064Z,87.00
2023-09-12T17:27:17.899Z,86.90
2023-09-12T17:29:46.026Z,86.60
2023-09-12T17:32:12.846Z,86.60
2023-09-12T17:34:40.569Z,86.30
2023-09-12T17:37:07.872Z,86.00
2023-09-12T17:39:34.864Z,85.80
2023-09-12T17:42:01.740Z,85.60
2023-09-12T17:44:28.485Z,85.40
2023-09-12T17:46:56.710Z,85.10
2023-09-12T17:49:23.502Z,84.90
2023-09-12T17:51:50.276Z,84.70
2023-09-12T17:54:17.101Z,84.70
2023-09-12T17:56:43.882Z,84.80
2023-09-12T17:59:10.636Z,84.80
2023-09-12T18:01:37.503Z,84.80
2023-09-12T18:04:05.894Z,85.00
2023-09-12T18:06:32.915Z,85.10
2023-09-12T18:09:00.990Z,85.00
2023-09-12T18:11:27.897Z,85.10
2023-09-12T18:13:54.702Z,85.00
2023-09-12T18:16:21.565Z,84.80
2023-09-12T18:18:48.549Z,84.60
2023-09-12T18:21:17.456Z,84.30
2023-09-12T18:23:44.557Z,84.00
2023-09-12T18:26:11.767Z,83.60
2023-09-12T18:28:41.107Z,83.20
2023-09-12T18:31:08.796Z,82.90
2023-09-12T18:33:35.755Z,82.60
2023-09-12T18:36:02.537Z,82.20
2023-09-12T18:38:30.692Z,81.90
2023-09-12T18:40:57.588Z,81.80
2023-09-12T18:43:24.530Z,81.80
2023-09-12T18:45:51.449Z,81.80
2023-09-12T18:48:18.343Z,82.00
2023-09-12T18:50:45.339Z,82.50
2023-09-12T18:53:12.134Z,82.60
2023-09-12T18:55:40.269Z,82.50
2023-09-12T18:58:07.155Z,82.50
2023-09-12T19:00:34.042Z,82.50
2023-09-12T19:03:01.007Z,82.40
2023-09-12T19:05:27.923Z,82.40
2023-09-12T19:07:55.425Z,82.10
2023-09-12T19:10:22.227Z,81.80
2023-09-12T19:12:50.388Z,81.60
2023-09-12T19:15:17.286Z,81.30
2023-09-12T19:17:44.037Z,81.10
2023-09-12T19:20:11.555Z,81.00
2023-09-12T19:22:38.427Z,80.70
2023-09-12T19:25:05.892Z,80.60
2023-09-12T19:27:32.728Z,80.40
2023-09-12T19:30:01.369Z,80.30
2023-09-12T19:32:28.909Z,80.20
2023-09-12T19:34:56.092Z,80.20
2023-09-12T19:37:22.879Z,80.40
2023-09-12T19:39:50.311Z,80.10
2023-09-12T19:42:18.147Z,79.70
2023-09-12T19:44:44.942Z,79.50
2023-09-12T19:47:13.078Z,79.60
2023-09-12T19:49:39.872Z,79.60
2023-09-12T19:52:07.026Z,79.60
2023-09-12T19:54:33.888Z,79.50
2023-09-12T19:57:00.819Z,79.40
2023-09-12T19:59:27.773Z,79.50
2023-09-12T20:01:54.615Z,79.50
2023-09-12T20:04:23.042Z,79.50
2023-09-12T20:06:49.875Z,79.60
2023-09-12T20:09:16.666Z,79.50
2023-09-12T20:11:43.441Z,79.50
2023-09-12T20:14:10.697Z,79.60
2023-09-12T20:16:38.075Z,79.80
2023-09-12T20:19:05.088Z,80.00
2023-09-12T20:21:33.555Z,80.00
2023-09-12T20:24:00.383Z,79.80
2023-09-12T20:26:27.428Z,79.50
2023-09-12T20:28:55.099Z,79.40
2023-09-12T20:31:22.236Z,79.10
2023-09-12T20:33:49.272Z,79.00
2023-09-12T20:36:16.309Z,78.90
2023-09-12T20:38:47.386Z,78.80
2023-09-12T20:41:14.131Z,78.80
2023-09-12T20:43:41.179Z,78.90
2023-09-12T20:46:08.366Z,78.90
2023-09-12T20:48:35.320Z,78.90
2023-09-12T20:51:02.203Z,78.90
2023-09-12T20:53:29.034Z,78.80
2023-09-12T20:55:57.153Z,78.70
2023-09-12T20:58:23.925Z,78.50
2023-09-12T21:00:50.759Z,78.60
2023-09-12T21:03:17.654Z,78.50
2023-09-12T21:05:44.479Z,78.40
2023-09-12T21:08:11.223Z,78.40
2023-09-12T21:10:38.013Z,78.40
2023-09-12T21:13:06.329Z,78.40
2023-09-12T21:15:33.354Z,78.50
2023-09-12T21:18:00.174Z,78.40
2023-09-12T21:20:26.971Z,78.60
2023-09-12T21:22:53.764Z,78.50
2023-09-12T21:25:20.512Z,78.30
2023-09-12T21:27:47.317Z,78.20
2023-09-12T21:30:15.707Z,78.10
2023-09-12T21:32:42.531Z,78.20
2023-09-12T21:35:11.386Z,78.10
2023-09-12T21:37:38.173Z,78.20
2023-09-12T21:40:06.158Z,78.20
2023-09-12T21:42:32.954Z,78.10
2023-09-12T21:44:59.758Z,78.10
2023-09-12T21:47:27.851Z,78.10
2023-09-12T21:49:54.610Z,78.30
2023-09-12T21:52:21.441Z,78.50
2023-09-12T21:54:48.239Z,78.40
2023-09-12T21:57:15.035Z,78.40
2023-09-12T21:59:41.856Z,78.10
2023-09-12T22:02:08.638Z,78.10
2023-09-12T22:04:36.840Z,77.90
2023-09-12T22:07:04.148Z,77.80
2023-09-12T22:09:31.019Z,77.90
2023-09-12T22:11:57.812Z,78.30
2023-09-12T22:14:25.038Z,78.40
2023-09-12T22:16:51.881Z,78.30
2023-09-12T22:19:18.777Z,78.20
2023-09-12T22:21:47.036Z,78.10
2023-09-12T22:24:13.847Z,77.90
2023-09-12T22:26:40.616Z,77.90
2023-09-12T22:29:07.355Z,77.80
2023-09-12T22:31:34.237Z,77.70
2023-09-12T22:34:01.167Z,77.70
2023-09-12T22:36:27.951Z,77.90
2023-09-12T22:38:56.062Z,78.50
2023-09-12T22:41:23.454Z,78.40
2023-09-12T22:43:50.193Z,78.50
2023-09-12T22:46:17.113Z,78.60
2023-09-12T22:48:44.002Z,78.80
2023-09-12T22:51:10.835Z,78.60
2023-09-12T22:53:37.612Z,78.30
2023-09-12T22:56:05.835Z,78.20
2023-09-12T22:58:32.622Z,78.50
2023-09-12T23:00:59.514Z,78.10
2023-09-12T23:03:26.371Z,77.90
2023-09-12T23:05:53.144Z,77.80
2023-09-12T23:08:19.958Z,77.70
2023-09-12T23:10:46.729Z,77.90
2023-09-12T23:13:14.904Z,78.10
2023-09-12T23:15:41.711Z,78.10
2023-09-12T23:18:08.576Z,78.30
2023-09-12T23:20:35.576Z,78.40
2023-09-12T23:23:02.467Z,78.40
2023-09-12T23:25:29.251Z,78.10
2023-09-12T23:27:56.049Z,77.90
2023-09-12T23:30:24.239Z,78.20
2023-09-12T23:32:51.112Z,78.30
2023-09-12T23:35:18.029Z,78.50
2023-09-12T23:37:44.856Z,78.30
2023-09-12T23:40:12.096Z,78.20
2023-09-12T23:42:39.015Z,78.10
2023-09-12T23:45:06.689Z,79.10
2023-09-12T23:47:34.798Z,78.90
2023-09-12T23:50:01.587Z,78.60
2023-09-12T23:52:28.385Z,78.60
2023-09-12T23:54:55.181Z,78.30
2023-09-12T23:57:21.971Z,79.10
2023-09-12T23:59:48.894Z,78.30
